sensor_id;sensor_type;location;lat;lon;timestamp;P1;durP1;ratioP1;P2;durP2;ratioP2
36597;SDS011;22607;49.550;11.940;2023-05-15T00:02:26;5.22;;;1.85;;
36597;SDS011;22607;49.550;11.940;2023-05-15T00:04:53;6.43;;;2.20;;
36597;SDS011;22607;49.550;11.940;2023-05-15T00:07:20;5.13;;;1.60;;
36597;SDS011;22607;49.550;11.940;2023-05-15T00:09:47;5.68;;;1.90;;
36597;SDS011;22607;49.550;11.940;2023-05-15T00:12:14;6.88;;;2.22;;
36597;SDS011;22607;49.550;11.940;2023-05-15T00:14:41;7.63;;;2.85;;
36597;SDS011;22607;49.550;11.940;2023-05-15T00:17:07;6.43;;;2.40;;
36597;SDS011;22607;49.550;11.940;2023-05-15T00:19:35;6.10;;;2.10;;
36597;SDS011;22607;49.550;11.940;2023-05-15T00:22:01;6.40;;;2.20;;
36597;SDS011;22607;49.550;11.940;2023-05-15T00:24:28;6.45;;;2.17;;
36597;SDS011;22607;49.550;11.940;2023-05-15T00:26:54;4.68;;;1.60;;
36597;SDS011;22607;49.550;11.940;2023-05-15T00:29:21;5.00;;;1.65;;
36597;SDS011;22607;49.550;11.940;2023-05-15T00:31:47;6.13;;;2.00;;
36597;SDS011;22607;49.550;11.940;2023-05-15T00:34:14;5.03;;;1.65;;
36597;SDS011;22607;49.550;11.940;2023-05-15T00:36:40;6.18;;;2.15;;
36597;SDS011;22607;49.550;11.940;2023-05-15T00:39:07;6.00;;;2.20;;
36597;SDS011;22607;49.550;11.940;2023-05-15T00:41:33;5.80;;;2.05;;
36597;SDS011;22607;49.550;11.940;2023-05-15T00:44:02;6.32;;;2.10;;
36597;SDS011;22607;49.550;11.940;2023-05-15T00:46:29;5.05;;;1.70;;
36597;SDS011;22607;49.550;11.940;2023-05-15T00:48:57;6.07;;;2.22;;
36597;SDS011;22607;49.550;11.940;2023-05-15T00:51:25;5.82;;;1.70;;
36597;SDS011;22607;49.550;11.940;2023-05-15T00:53:52;5.82;;;1.95;;
36597;SDS011;22607;49.550;11.940;2023-05-15T00:56:20;4.90;;;1.70;;
36597;SDS011;22607;49.550;11.940;2023-05-15T00:58:47;5.55;;;1.95;;
36597;SDS011;22607;49.550;11.940;2023-05-15T01:01:15;6.13;;;2.20;;
36597;SDS011;22607;49.550;11.940;2023-05-15T01:03:42;6.45;;;1.88;;
36597;SDS011;22607;49.550;11.940;2023-05-15T01:06:09;5.53;;;1.90;;
36597;SDS011;22607;49.550;11.940;2023-05-15T01:08:37;6.60;;;2.00;;
36597;SDS011;22607;49.550;11.940;2023-05-15T01:11:09;6.10;;;2.33;;
36597;SDS011;22607;49.550;11.940;2023-05-15T01:13:37;6.30;;;2.10;;
36597;SDS011;22607;49.550;11.940;2023-05-15T01:16:05;5.78;;;1.88;;
36597;SDS011;22607;49.550;11.940;2023-05-15T01:18:32;5.85;;;2.03;;
36597;SDS011;22607;49.550;11.940;2023-05-15T01:29:50;5.38;;;1.95;;
36597;SDS011;22607;49.550;11.940;2023-05-15T01:32:42;5.28;;;2.08;;
36597;SDS011;22607;49.550;11.940;2023-05-15T01:35:20;5.18;;;1.90;;
36597;SDS011;22607;49.550;11.940;2023-05-15T01:37:53;6.03;;;2.13;;
36597;SDS011;22607;49.550;11.940;2023-05-15T01:40:30;8.00;;;2.00;;
36597;SDS011;22607;49.550;11.940;2023-05-15T01:42:58;5.10;;;1.73;;
36597;SDS011;22607;49.550;11.940;2023-05-15T01:45:31;5.57;;;1.90;;
36597;SDS011;22607;49.550;11.940;2023-05-15T01:47:59;5.72;;;1.83;;
36597;SDS011;22607;49.550;11.940;2023-05-15T01:50:27;5.88;;;2.13;;
36597;SDS011;22607;49.550;11.940;2023-05-15T01:52:57;6.93;;;2.28;;
36597;SDS011;22607;49.550;11.940;2023-05-15T01:55:27;7.05;;;2.30;;
36597;SDS011;22607;49.550;11.940;2023-05-15T01:57:56;6.03;;;2.20;;
36597;SDS011;22607;49.550;11.940;2023-05-15T02:00:27;8.50;;;2.60;;
36597;SDS011;22607;49.550;11.940;2023-05-15T02:02:54;5.65;;;2.00;;
36597;SDS011;22607;49.550;11.940;2023-05-15T02:05:22;6.32;;;2.25;;
36597;SDS011;22607;49.550;11.940;2023-05-15T02:07:51;7.05;;;2.55;;
36597;SDS011;22607;49.550;11.940;2023-05-15T02:10:18;6.05;;;2.00;;
36597;SDS011;22607;49.550;11.940;2023-05-15T02:12:46;7.75;;;2.40;;
36597;SDS011;22607;49.550;11.940;2023-05-15T02:15:14;6.22;;;2.03;;
36597;SDS011;22607;49.550;11.940;2023-05-15T02:17:42;7.85;;;2.40;;
36597;SDS011;22607;49.550;11.940;2023-05-15T02:20:09;6.15;;;2.13;;
36597;SDS011;22607;49.550;11.940;2023-05-15T02:22:35;7.22;;;2.78;;
36597;SDS011;22607;49.550;11.940;2023-05-15T02:25:02;7.13;;;2.25;;
36597;SDS011;22607;49.550;11.940;2023-05-15T02:27:32;7.47;;;2.20;;
36597;SDS011;22607;49.550;11.940;2023-05-15T02:35:37;6.53;;;2.60;;
36597;SDS011;22607;49.550;11.940;2023-05-15T02:38:15;6.32;;;2.17;;
36597;SDS011;22607;49.550;11.940;2023-05-15T02:40:43;6.60;;;2.50;;
36597;SDS011;22607;49.550;11.940;2023-05-15T02:43:11;6.70;;;2.60;;
36597;SDS011;22607;49.550;11.940;2023-05-15T02:45:39;6.50;;;2.63;;
36597;SDS011;22607;49.550;11.940;2023-05-15T02:48:07;7.05;;;2.60;;
36597;SDS011;22607;49.550;11.940;2023-05-15T02:50:34;8.13;;;2.70;;
36597;SDS011;22607;49.550;11.940;2023-05-15T02:53:01;6.57;;;2.35;;
36597;SDS011;22607;49.550;11.940;2023-05-15T02:55:36;6.53;;;2.35;;
36597;SDS011;22607;49.550;11.940;2023-05-15T02:58:03;6.43;;;2.42;;
36597;SDS011;22607;49.550;11.940;2023-05-15T03:00:30;9.70;;;2.60;;
36597;SDS011;22607;49.550;11.940;2023-05-15T03:02:58;6.53;;;2.30;;
36597;SDS011;22607;49.550;11.940;2023-05-15T03:05:25;6.97;;;2.40;;
36597;SDS011;22607;49.550;11.940;2023-05-15T03:07:52;5.97;;;1.98;;
36597;SDS011;22607;49.550;11.940;2023-05-15T03:10:19;6.47;;;2.17;;
36597;SDS011;22607;49.550;11.940;2023-05-15T03:12:48;7.05;;;2.88;;
36597;SDS011;22607;49.550;11.940;2023-05-15T03:15:15;7.75;;;2.50;;
36597;SDS011;22607;49.550;11.940;2023-05-15T03:17:42;8.10;;;3.17;;
36597;SDS011;22607;49.550;11.940;2023-05-15T03:20:08;7.10;;;2.88;;
36597;SDS011;22607;49.550;11.940;2023-05-15T03:22:36;6.50;;;2.42;;
36597;SDS011;22607;49.550;11.940;2023-05-15T03:25:02;6.85;;;2.47;;
36597;SDS011;22607;49.550;11.940;2023-05-15T03:27:29;6.18;;;2.13;;
36597;SDS011;22607;49.550;11.940;2023-05-15T03:29:56;7.38;;;2.88;;
36597;SDS011;22607;49.550;11.940;2023-05-15T03:32:22;7.22;;;2.67;;
36597;SDS011;22607;49.550;11.940;2023-05-15T03:34:49;8.57;;;3.20;;
36597;SDS011;22607;49.550;11.940;2023-05-15T03:37:15;8.07;;;2.97;;
36597;SDS011;22607;49.550;11.940;2023-05-15T03:39:42;7.85;;;2.90;;
36597;SDS011;22607;49.550;11.940;2023-05-15T03:42:08;7.63;;;2.95;;
36597;SDS011;22607;49.550;11.940;2023-05-15T03:44:35;7.55;;;3.20;;
36597;SDS011;22607;49.550;11.940;2023-05-15T03:47:01;6.93;;;2.80;;
36597;SDS011;22607;49.550;11.940;2023-05-15T03:49:28;7.75;;;3.15;;
36597;SDS011;22607;49.550;11.940;2023-05-15T03:51:55;7.25;;;2.75;;
36597;SDS011;22607;49.550;11.940;2023-05-15T03:54:22;7.50;;;2.78;;
36597;SDS011;22607;49.550;11.940;2023-05-15T03:56:49;8.25;;;2.90;;
36597;SDS011;22607;49.550;11.940;2023-05-15T03:59:15;7.85;;;2.80;;
36597;SDS011;22607;49.550;11.940;2023-05-15T04:01:42;6.45;;;2.45;;
36597;SDS011;22607;49.550;11.940;2023-05-15T04:04:28;7.97;;;2.75;;
36597;SDS011;22607;49.550;11.940;2023-05-15T04:06:54;6.90;;;2.40;;
36597;SDS011;22607;49.550;11.940;2023-05-15T04:09:21;7.43;;;2.63;;
36597;SDS011;22607;49.550;11.940;2023-05-15T04:11:48;6.65;;;2.80;;
36597;SDS011;22607;49.550;11.940;2023-05-15T04:14:14;6.82;;;2.67;;
36597;SDS011;22607;49.550;11.940;2023-05-15T04:16:41;6.78;;;2.63;;
36597;SDS011;22607;49.550;11.940;2023-05-15T04:19:07;7.55;;;2.67;;
36597;SDS011;22607;49.550;11.940;2023-05-15T04:21:34;7.82;;;2.80;;
36597;SDS011;22607;49.550;11.940;2023-05-15T04:24:01;7.03;;;2.63;;
36597;SDS011;22607;49.550;11.940;2023-05-15T04:26:27;8.13;;;2.90;;
36597;SDS011;22607;49.550;11.940;2023-05-15T04:28:54;6.93;;;2.83;;
36597;SDS011;22607;49.550;11.940;2023-05-15T04:31:29;7.97;;;2.60;;
36597;SDS011;22607;49.550;11.940;2023-05-15T04:33:57;7.57;;;2.53;;
36597;SDS011;22607;49.550;11.940;2023-05-15T04:36:24;6.82;;;2.58;;
36597;SDS011;22607;49.550;11.940;2023-05-15T04:38:51;7.32;;;2.38;;
36597;SDS011;22607;49.550;11.940;2023-05-15T04:41:17;6.20;;;2.30;;
36597;SDS011;22607;49.550;11.940;2023-05-15T04:43:44;6.45;;;2.53;;
36597;SDS011;22607;49.550;11.940;2023-05-15T04:46:11;6.65;;;2.60;;
36597;SDS011;22607;49.550;11.940;2023-05-15T04:48:38;7.40;;;2.97;;
36597;SDS011;22607;49.550;11.940;2023-05-15T04:51:05;7.30;;;2.88;;
36597;SDS011;22607;49.550;11.940;2023-05-15T04:53:32;7.78;;;2.97;;
36597;SDS011;22607;49.550;11.940;2023-05-15T04:55:59;6.72;;;2.75;;
36597;SDS011;22607;49.550;11.940;2023-05-15T04:58:25;8.18;;;3.40;;
36597;SDS011;22607;49.550;11.940;2023-05-15T05:00:52;8.15;;;3.08;;
36597;SDS011;22607;49.550;11.940;2023-05-15T05:03:18;7.57;;;3.13;;
36597;SDS011;22607;49.550;11.940;2023-05-15T05:05:45;7.25;;;3.00;;
36597;SDS011;22607;49.550;11.940;2023-05-15T05:08:12;8.27;;;3.22;;
36597;SDS011;22607;49.550;11.940;2023-05-15T05:10:38;9.18;;;3.10;;
36597;SDS011;22607;49.550;11.940;2023-05-15T05:13:05;7.80;;;3.40;;
36597;SDS011;22607;49.550;11.940;2023-05-15T05:15:31;7.55;;;3.55;;
36597;SDS011;22607;49.550;11.940;2023-05-15T05:17:58;7.72;;;3.42;;
36597;SDS011;22607;49.550;11.940;2023-05-15T05:20:24;7.50;;;3.15;;
36597;SDS011;22607;49.550;11.940;2023-05-15T05:22:51;8.15;;;3.65;;
36597;SDS011;22607;49.550;11.940;2023-05-15T05:25:18;7.20;;;3.28;;
36597;SDS011;22607;49.550;11.940;2023-05-15T05:27:45;8.48;;;3.25;;
36597;SDS011;22607;49.550;11.940;2023-05-15T05:30:11;7.43;;;2.90;;
36597;SDS011;22607;49.550;11.940;2023-05-15T05:32:38;7.57;;;3.00;;
36597;SDS011;22607;49.550;11.940;2023-05-15T05:35:04;7.28;;;3.30;;
36597;SDS011;22607;49.550;11.940;2023-05-15T05:37:31;6.95;;;2.80;;
36597;SDS011;22607;49.550;11.940;2023-05-15T05:39:58;8.77;;;3.45;;
36597;SDS011;22607;49.550;11.940;2023-05-15T05:42:24;6.70;;;2.80;;
36597;SDS011;22607;49.550;11.940;2023-05-15T05:44:52;7.85;;;3.38;;
36597;SDS011;22607;49.550;11.940;2023-05-15T05:47:18;7.88;;;3.47;;
36597;SDS011;22607;49.550;11.940;2023-05-15T05:49:45;7.60;;;3.22;;
36597;SDS011;22607;49.550;11.940;2023-05-15T05:52:13;8.30;;;3.25;;
36597;SDS011;22607;49.550;11.940;2023-05-15T05:54:41;7.68;;;2.85;;
36597;SDS011;22607;49.550;11.940;2023-05-15T05:57:08;7.53;;;3.03;;
36597;SDS011;22607;49.550;11.940;2023-05-15T05:59:34;8.18;;;3.20;;
36597;SDS011;22607;49.550;11.940;2023-05-15T06:02:01;7.03;;;2.80;;
36597;SDS011;22607;49.550;11.940;2023-05-15T06:04:30;7.82;;;2.80;;
36597;SDS011;22607;49.550;11.940;2023-05-15T06:06:59;6.97;;;2.75;;
36597;SDS011;22607;49.550;11.940;2023-05-15T06:09:26;7.63;;;2.90;;
36597;SDS011;22607;49.550;11.940;2023-05-15T06:11:52;6.70;;;2.60;;
36597;SDS011;22607;49.550;11.940;2023-05-15T06:14:19;7.90;;;2.70;;
36597;SDS011;22607;49.550;11.940;2023-05-15T06:16:46;6.47;;;2.42;;
36597;SDS011;22607;49.550;11.940;2023-05-15T06:19:13;6.72;;;2.88;;
36597;SDS011;22607;49.550;11.940;2023-05-15T06:21:39;7.45;;;2.75;;
36597;SDS011;22607;49.550;11.940;2023-05-15T06:24:06;7.15;;;2.70;;
36597;SDS011;22607;49.550;11.940;2023-05-15T06:26:32;6.85;;;2.80;;
36597;SDS011;22607;49.550;11.940;2023-05-15T06:28:59;7.25;;;2.95;;
36597;SDS011;22607;49.550;11.940;2023-05-15T06:31:26;7.07;;;2.80;;
36597;SDS011;22607;49.550;11.940;2023-05-15T06:33:53;7.38;;;3.15;;
36597;SDS011;22607;49.550;11.940;2023-05-15T06:36:20;7.05;;;2.85;;
36597;SDS011;22607;49.550;11.940;2023-05-15T06:38:46;6.90;;;2.75;;
36597;SDS011;22607;49.550;11.940;2023-05-15T06:41:13;6.85;;;2.80;;
36597;SDS011;22607;49.550;11.940;2023-05-15T06:43:39;6.28;;;2.70;;
36597;SDS011;22607;49.550;11.940;2023-05-15T06:46:06;6.20;;;2.53;;
36597;SDS011;22607;49.550;11.940;2023-05-15T06:48:32;6.18;;;2.45;;
36597;SDS011;22607;49.550;11.940;2023-05-15T06:50:59;6.35;;;2.00;;
36597;SDS011;22607;49.550;11.940;2023-05-15T06:53:25;5.50;;;2.00;;
36597;SDS011;22607;49.550;11.940;2023-05-15T06:55:52;6.60;;;2.40;;
36597;SDS011;22607;49.550;11.940;2023-05-15T06:58:18;5.90;;;2.10;;
36597;SDS011;22607;49.550;11.940;2023-05-15T07:00:45;5.63;;;1.90;;
36597;SDS011;22607;49.550;11.940;2023-05-15T07:03:11;5.72;;;2.00;;
36597;SDS011;22607;49.550;11.940;2023-05-15T07:05:39;5.30;;;1.83;;
36597;SDS011;22607;49.550;11.940;2023-05-15T07:08:06;5.82;;;2.03;;
36597;SDS011;22607;49.550;11.940;2023-05-15T07:10:32;6.50;;;2.00;;
36597;SDS011;22607;49.550;11.940;2023-05-15T07:12:59;7.47;;;2.40;;
36597;SDS011;22607;49.550;11.940;2023-05-15T07:15:25;6.25;;;2.22;;
36597;SDS011;22607;49.550;11.940;2023-05-15T07:17:52;6.70;;;2.08;;
36597;SDS011;22607;49.550;11.940;2023-05-15T07:20:19;6.32;;;2.30;;
36597;SDS011;22607;49.550;11.940;2023-05-15T07:22:45;5.93;;;2.05;;
36597;SDS011;22607;49.550;11.940;2023-05-15T07:25:21;6.38;;;2.15;;
36597;SDS011;22607;49.550;11.940;2023-05-15T07:27:49;6.07;;;1.90;;
36597;SDS011;22607;49.550;11.940;2023-05-15T07:30:16;6.10;;;2.10;;
36597;SDS011;22607;49.550;11.940;2023-05-15T07:32:43;6.25;;;2.20;;
36597;SDS011;22607;49.550;11.940;2023-05-15T07:35:10;6.38;;;2.35;;
36597;SDS011;22607;49.550;11.940;2023-05-15T07:37:37;7.03;;;2.28;;
36597;SDS011;22607;49.550;11.940;2023-05-15T07:40:03;5.95;;;2.15;;
36597;SDS011;22607;49.550;11.940;2023-05-15T07:42:31;5.95;;;2.25;;
36597;SDS011;22607;49.550;11.940;2023-05-15T07:44:57;6.13;;;2.10;;
36597;SDS011;22607;49.550;11.940;2023-05-15T07:47:24;7.93;;;2.60;;
36597;SDS011;22607;49.550;11.940;2023-05-15T07:49:50;6.53;;;2.53;;
36597;SDS011;22607;49.550;11.940;2023-05-15T07:52:17;6.20;;;2.40;;
36597;SDS011;22607;49.550;11.940;2023-05-15T07:54:44;6.53;;;2.15;;
36597;SDS011;22607;49.550;11.940;2023-05-15T07:57:10;8.95;;;2.55;;
36597;SDS011;22607;49.550;11.940;2023-05-15T07:59:38;8.60;;;2.10;;
36597;SDS011;22607;49.550;11.940;2023-05-15T08:02:05;6.40;;;2.20;;
36597;SDS011;22607;49.550;11.940;2023-05-15T08:04:32;5.82;;;2.20;;
36597;SDS011;22607;49.550;11.940;2023-05-15T08:06:59;6.38;;;2.42;;
36597;SDS011;22607;49.550;11.940;2023-05-15T08:09:25;7.05;;;2.45;;
36597;SDS011;22607;49.550;11.940;2023-05-15T08:11:54;5.55;;;1.98;;
36597;SDS011;22607;49.550;11.940;2023-05-15T08:14:21;7.13;;;2.42;;
36597;SDS011;22607;49.550;11.940;2023-05-15T08:16:48;7.93;;;2.78;;
36597;SDS011;22607;49.550;11.940;2023-05-15T08:19:15;6.72;;;2.33;;
36597;SDS011;22607;49.550;11.940;2023-05-15T08:21:42;6.35;;;2.38;;
36597;SDS011;22607;49.550;11.940;2023-05-15T08:24:08;5.90;;;2.20;;
36597;SDS011;22607;49.550;11.940;2023-05-15T08:26:35;5.93;;;2.10;;
36597;SDS011;22607;49.550;11.940;2023-05-15T08:29:01;6.10;;;2.03;;
36597;SDS011;22607;49.550;11.940;2023-05-15T08:31:29;6.43;;;2.20;;
36597;SDS011;22607;49.550;11.940;2023-05-15T08:33:55;4.78;;;1.70;;
36597;SDS011;22607;49.550;11.940;2023-05-15T08:36:22;6.47;;;1.95;;
36597;SDS011;22607;49.550;11.940;2023-05-15T08:38:49;4.85;;;1.80;;
36597;SDS011;22607;49.550;11.940;2023-05-15T08:41:24;4.78;;;1.75;;
36597;SDS011;22607;49.550;11.940;2023-05-15T08:44:05;4.78;;;1.90;;
36597;SDS011;22607;49.550;11.940;2023-05-15T08:46:34;6.35;;;2.22;;
36597;SDS011;22607;49.550;11.940;2023-05-15T08:49:02;5.90;;;2.05;;
36597;SDS011;22607;49.550;11.940;2023-05-15T08:51:39;6.35;;;2.28;;
36597;SDS011;22607;49.550;11.940;2023-05-15T08:54:06;6.40;;;2.20;;
36597;SDS011;22607;49.550;11.940;2023-05-15T08:56:33;5.18;;;2.00;;
36597;SDS011;22607;49.550;11.940;2023-05-15T08:59:01;6.13;;;2.58;;
36597;SDS011;22607;49.550;11.940;2023-05-15T09:01:29;6.90;;;2.35;;
36597;SDS011;22607;49.550;11.940;2023-05-15T09:03:55;5.72;;;2.13;;
36597;SDS011;22607;49.550;11.940;2023-05-15T09:06:22;5.53;;;2.10;;
36597;SDS011;22607;49.550;11.940;2023-05-15T09:08:50;6.57;;;2.20;;
36597;SDS011;22607;49.550;11.940;2023-05-15T09:11:21;7.20;;;2.80;;
36597;SDS011;22607;49.550;11.940;2023-05-15T09:13:49;6.07;;;2.35;;
36597;SDS011;22607;49.550;11.940;2023-05-15T09:16:16;6.25;;;2.40;;
36597;SDS011;22607;49.550;11.940;2023-05-15T09:18:42;6.63;;;2.08;;
36597;SDS011;22607;49.550;11.940;2023-05-15T09:21:28;6.32;;;2.50;;
36597;SDS011;22607;49.550;11.940;2023-05-15T09:24:19;7.53;;;2.60;;
36597;SDS011;22607;49.550;11.940;2023-05-15T09:27:04;5.82;;;2.20;;
36597;SDS011;22607;49.550;11.940;2023-05-15T09:29:35;6.05;;;2.40;;
36597;SDS011;22607;49.550;11.940;2023-05-15T09:32:11;5.95;;;2.13;;
36597;SDS011;22607;49.550;11.940;2023-05-15T09:34:40;6.40;;;2.35;;
36597;SDS011;22607;49.550;11.940;2023-05-15T09:37:08;5.50;;;2.10;;
36597;SDS011;22607;49.550;11.940;2023-05-15T09:39:40;6.40;;;2.20;;
36597;SDS011;22607;49.550;11.940;2023-05-15T09:44:41;5.88;;;2.03;;
36597;SDS011;22607;49.550;11.940;2023-05-15T09:47:09;5.82;;;2.05;;
36597;SDS011;22607;49.550;11.940;2023-05-15T09:49:38;8.43;;;2.63;;
36597;SDS011;22607;49.550;11.940;2023-05-15T09:52:08;6.88;;;2.05;;
36597;SDS011;22607;49.550;11.940;2023-05-15T09:54:35;8.77;;;2.55;;
36597;SDS011;22607;49.550;11.940;2023-05-15T09:57:09;6.40;;;2.30;;
36597;SDS011;22607;49.550;11.940;2023-05-15T09:59:47;7.25;;;2.15;;
36597;SDS011;22607;49.550;11.940;2023-05-15T10:02:28;6.80;;;2.42;;
36597;SDS011;22607;49.550;11.940;2023-05-15T10:04:59;6.25;;;2.10;;
36597;SDS011;22607;49.550;11.940;2023-05-15T10:07:27;6.35;;;2.00;;
36597;SDS011;22607;49.550;11.940;2023-05-15T10:09:57;6.00;;;1.98;;
36597;SDS011;22607;49.550;11.940;2023-05-15T10:12:25;6.00;;;2.20;;
36597;SDS011;22607;49.550;11.940;2023-05-15T10:14:52;5.78;;;2.13;;
36597;SDS011;22607;49.550;11.940;2023-05-15T10:17:21;6.38;;;2.22;;
36597;SDS011;22607;49.550;11.940;2023-05-15T10:19:49;6.85;;;2.50;;
36597;SDS011;22607;49.550;11.940;2023-05-15T10:22:23;6.10;;;2.17;;
36597;SDS011;22607;49.550;11.940;2023-05-15T10:24:58;6.20;;;2.40;;
36597;SDS011;22607;49.550;11.940;2023-05-15T10:27:27;8.00;;;2.50;;
36597;SDS011;22607;49.550;11.940;2023-05-15T10:29:56;6.32;;;2.15;;
36597;SDS011;22607;49.550;11.940;2023-05-15T10:32:23;5.05;;;1.90;;
36597;SDS011;22607;49.550;11.940;2023-05-15T10:34:51;5.38;;;1.90;;
36597;SDS011;22607;49.550;11.940;2023-05-15T10:37:19;4.47;;;1.70;;
36597;SDS011;22607;49.550;11.940;2023-05-15T10:39:46;4.72;;;1.70;;
36597;SDS011;22607;49.550;11.940;2023-05-15T10:42:14;6.03;;;1.77;;
36597;SDS011;22607;49.550;11.940;2023-05-15T10:44:42;5.57;;;1.80;;
36597;SDS011;22607;49.550;11.940;2023-05-15T10:47:08;6.63;;;2.50;;
36597;SDS011;22607;49.550;11.940;2023-05-15T10:49:35;6.80;;;2.35;;
36597;SDS011;22607;49.550;11.940;2023-05-15T10:52:02;4.95;;;1.90;;
36597;SDS011;22607;49.550;11.940;2023-05-15T10:54:29;6.93;;;2.28;;
36597;SDS011;22607;49.550;11.940;2023-05-15T10:56:55;5.38;;;2.00;;
36597;SDS011;22607;49.550;11.940;2023-05-15T10:59:29;7.88;;;2.10;;
36597;SDS011;22607;49.550;11.940;2023-05-15T11:01:57;4.50;;;1.77;;
36597;SDS011;22607;49.550;11.940;2023-05-15T11:04:57;5.50;;;2.05;;
36597;SDS011;22607;49.550;11.940;2023-05-15T11:07:25;6.13;;;2.08;;
36597;SDS011;22607;49.550;11.940;2023-05-15T11:09:53;4.90;;;1.80;;
36597;SDS011;22607;49.550;11.940;2023-05-15T11:12:20;5.18;;;1.90;;
36597;SDS011;22607;49.550;11.940;2023-05-15T11:17:21;5.75;;;1.80;;
36597;SDS011;22607;49.550;11.940;2023-05-15T11:22:18;5.55;;;1.80;;
36597;SDS011;22607;49.550;11.940;2023-05-15T11:24:59;4.10;;;1.65;;
36597;SDS011;22607;49.550;11.940;2023-05-15T11:27:32;5.20;;;1.80;;
36597;SDS011;22607;49.550;11.940;2023-05-15T11:33:21;5.88;;;2.10;;
36597;SDS011;22607;49.550;11.940;2023-05-15T11:35:42;5.88;;;1.92;;
36597;SDS011;22607;49.550;11.940;2023-05-15T11:38:13;6.07;;;1.73;;
36597;SDS011;22607;49.550;11.940;2023-05-15T11:40:43;5.13;;;1.80;;
36597;SDS011;22607;49.550;11.940;2023-05-15T11:43:21;5.20;;;1.90;;
36597;SDS011;22607;49.550;11.940;2023-05-15T11:45:53;6.82;;;2.25;;
36597;SDS011;22607;49.550;11.940;2023-05-15T11:48:24;4.93;;;1.95;;
36597;SDS011;22607;49.550;11.940;2023-05-15T11:51:01;6.30;;;1.92;;
36597;SDS011;22607;49.550;11.940;2023-05-15T11:53:29;6.68;;;2.10;;
36597;SDS011;22607;49.550;11.940;2023-05-15T11:55:57;6.55;;;2.17;;
36597;SDS011;22607;49.550;11.940;2023-05-15T11:58:24;5.18;;;1.90;;
36597;SDS011;22607;49.550;11.940;2023-05-15T12:00:51;5.93;;;2.10;;
36597;SDS011;22607;49.550;11.940;2023-05-15T12:03:25;7.38;;;2.38;;
36597;SDS011;22607;49.550;11.940;2023-05-15T12:05:53;5.88;;;1.90;;
36597;SDS011;22607;49.550;11.940;2023-05-15T12:08:25;6.45;;;2.13;;
36597;SDS011;22607;49.550;11.940;2023-05-15T12:11:03;5.43;;;1.75;;
36597;SDS011;22607;49.550;11.940;2023-05-15T12:13:30;4.40;;;1.63;;
36597;SDS011;22607;49.550;11.940;2023-05-15T12:15:58;4.95;;;1.70;;
36597;SDS011;22607;49.550;11.940;2023-05-15T12:18:28;5.18;;;1.80;;
36597;SDS011;22607;49.550;11.940;2023-05-15T12:20:58;6.95;;;2.05;;
36597;SDS011;22607;49.550;11.940;2023-05-15T12:23:25;7.78;;;1.90;;
36597;SDS011;22607;49.550;11.940;2023-05-15T12:25:58;5.70;;;2.10;;
36597;SDS011;22607;49.550;11.940;2023-05-15T12:28:27;5.30;;;2.03;;
36597;SDS011;22607;49.550;11.940;2023-05-15T12:30:54;5.22;;;1.80;;
36597;SDS011;22607;49.550;11.940;2023-05-15T12:33:21;6.07;;;1.80;;
36597;SDS011;22607;49.550;11.940;2023-05-15T12:35:49;5.30;;;2.05;;
36597;SDS011;22607;49.550;11.940;2023-05-15T12:38:21;6.75;;;1.83;;
36597;SDS011;22607;49.550;11.940;2023-05-15T12:40:50;5.78;;;2.00;;
36597;SDS011;22607;49.550;11.940;2023-05-15T12:43:19;5.22;;;1.90;;
36597;SDS011;22607;49.550;11.940;2023-05-15T12:45:50;6.05;;;2.17;;
36597;SDS011;22607;49.550;11.940;2023-05-15T12:48:18;6.70;;;2.38;;
36597;SDS011;22607;49.550;11.940;2023-05-15T12:50:44;7.53;;;2.40;;
36597;SDS011;22607;49.550;11.940;2023-05-15T12:53:14;5.53;;;2.00;;
36597;SDS011;22607;49.550;11.940;2023-05-15T12:55:45;6.40;;;1.87;;
36597;SDS011;22607;49.550;11.940;2023-05-15T12:58:13;7.05;;;2.30;;
36597;SDS011;22607;49.550;11.940;2023-05-15T13:00:41;5.43;;;1.90;;
36597;SDS011;22607;49.550;11.940;2023-05-15T13:03:09;5.90;;;2.20;;
36597;SDS011;22607;49.550;11.940;2023-05-15T13:05:37;7.05;;;2.47;;
36597;SDS011;22607;49.550;11.940;2023-05-15T13:08:05;6.75;;;2.60;;
36597;SDS011;22607;49.550;11.940;2023-05-15T13:10:35;6.07;;;2.20;;
36597;SDS011;22607;49.550;11.940;2023-05-15T13:13:03;7.22;;;2.30;;
36597;SDS011;22607;49.550;11.940;2023-05-15T13:15:30;6.13;;;2.50;;
36597;SDS011;22607;49.550;11.940;2023-05-15T13:18:01;6.78;;;2.67;;
36597;SDS011;22607;49.550;11.940;2023-05-15T13:20:42;7.25;;;2.50;;
36597;SDS011;22607;49.550;11.940;2023-05-15T13:23:10;6.57;;;2.65;;
36597;SDS011;22607;49.550;11.940;2023-05-15T13:25:41;6.20;;;2.30;;
36597;SDS011;22607;49.550;11.940;2023-05-15T13:28:08;5.50;;;2.13;;
36597;SDS011;22607;49.550;11.940;2023-05-15T13:30:36;9.73;;;2.65;;
36597;SDS011;22607;49.550;11.940;2023-05-15T13:33:07;7.07;;;2.25;;
36597;SDS011;22607;49.550;11.940;2023-05-15T13:35:35;5.80;;;2.20;;
36597;SDS011;22607;49.550;11.940;2023-05-15T13:38:02;5.32;;;2.10;;
36597;SDS011;22607;49.550;11.940;2023-05-15T13:40:29;7.78;;;2.22;;
36597;SDS011;22607;49.550;11.940;2023-05-15T13:42:58;5.97;;;2.00;;
36597;SDS011;22607;49.550;11.940;2023-05-15T13:45:25;6.28;;;2.22;;
36597;SDS011;22607;49.550;11.940;2023-05-15T13:47:51;5.88;;;2.25;;
36597;SDS011;22607;49.550;11.940;2023-05-15T13:50:19;6.30;;;2.13;;
36597;SDS011;22607;49.550;11.940;2023-05-15T13:52:47;5.65;;;1.88;;
36597;SDS011;22607;49.550;11.940;2023-05-15T13:55:13;6.57;;;2.40;;
36597;SDS011;22607;49.550;11.940;2023-05-15T13:57:40;7.00;;;2.15;;
36597;SDS011;22607;49.550;11.940;2023-05-15T14:00:09;9.07;;;2.50;;
36597;SDS011;22607;49.550;11.940;2023-05-15T14:02:41;5.80;;;2.00;;
36597;SDS011;22607;49.550;11.940;2023-05-15T14:05:12;7.63;;;2.42;;
36597;SDS011;22607;49.550;11.940;2023-05-15T14:07:40;7.07;;;2.10;;
36597;SDS011;22607;49.550;11.940;2023-05-15T14:10:07;5.95;;;1.90;;
36597;SDS011;22607;49.550;11.940;2023-05-15T14:12:35;6.47;;;2.25;;
36597;SDS011;22607;49.550;11.940;2023-05-15T14:15:02;6.20;;;2.30;;
36597;SDS011;22607;49.550;11.940;2023-05-15T14:17:30;5.97;;;2.20;;
36597;SDS011;22607;49.550;11.940;2023-05-15T14:19:57;8.65;;;2.38;;
36597;SDS011;22607;49.550;11.940;2023-05-15T14:22:23;6.30;;;2.60;;
36597;SDS011;22607;49.550;11.940;2023-05-15T14:24:51;6.55;;;2.10;;
36597;SDS011;22607;49.550;11.940;2023-05-15T14:27:18;5.80;;;2.03;;
36597;SDS011;22607;49.550;11.940;2023-05-15T14:29:45;6.10;;;2.30;;
36597;SDS011;22607;49.550;11.940;2023-05-15T14:32:14;5.95;;;2.25;;
36597;SDS011;22607;49.550;11.940;2023-05-15T14:34:41;7.60;;;2.50;;
36597;SDS011;22607;49.550;11.940;2023-05-15T14:37:08;7.05;;;2.88;;
36597;SDS011;22607;49.550;11.940;2023-05-15T14:39:34;6.88;;;2.50;;
36597;SDS011;22607;49.550;11.940;2023-05-15T14:42:01;6.25;;;2.78;;
36597;SDS011;22607;49.550;11.940;2023-05-15T14:44:27;7.18;;;2.38;;
36597;SDS011;22607;49.550;11.940;2023-05-15T14:47:10;6.15;;;2.47;;
36597;SDS011;22607;49.550;11.940;2023-05-15T14:49:41;5.68;;;2.15;;
36597;SDS011;22607;49.550;11.940;2023-05-15T14:52:08;7.00;;;2.80;;
36597;SDS011;22607;49.550;11.940;2023-05-15T14:54:37;6.13;;;2.50;;
36597;SDS011;22607;49.550;11.940;2023-05-15T14:57:04;7.18;;;2.60;;
36597;SDS011;22607;49.550;11.940;2023-05-15T14:59:31;8.20;;;2.58;;
36597;SDS011;22607;49.550;11.940;2023-05-15T15:01:57;6.80;;;2.42;;
36597;SDS011;22607;49.550;11.940;2023-05-15T15:04:24;6.82;;;2.28;;
36597;SDS011;22607;49.550;11.940;2023-05-15T15:06:53;7.40;;;2.47;;